sensor_id;sensor_type;location;lat;lon;timestamp;pressure;altitude;pressure_sealevel;temperature;humidity
29935;BME280;19905;53.370;-6.314;2022-08-05T00:00:46;101831.09;;;12.06;100.00
29935;BME280;19905;53.370;-6.314;2022-08-05T00:03:17;101831.00;;;12.08;100.00
29935;BME280;19905;53.370;-6.314;2022-08-05T00:05:45;101828.53;;;12.05;100.00
29935;BME280;19905;53.370;-6.314;2022-08-05T00:08:34;101830.94;;;11.95;100.00
29935;BME280;19905;53.370;-6.314;2022-08-05T00:11:05;101826.41;;;11.97;100.00
29935;BME280;19905;53.370;-6.314;2022-08-05T00:13:55;101829.88;;;11.98;100.00
29935;BME280;19905;53.370;-6.314;2022-08-05T00:16:23;101827.84;;;11.88;100.00
29935;BME280;19905;53.370;-6.314;2022-08-05T00:19:03;101837.19;;;11.80;100.00
29935;BME280;19905;53.370;-6.314;2022-08-05T00:21:33;101833.13;;;11.74;100.00
29935;BME280;19905;53.370;-6.314;2022-08-05T00:24:03;101838.22;;;11.63;100.00
29935;BME280;19905;53.370;-6.314;2022-08-05T00:26:37;101838.44;;;11.60;100.00
29935;BME280;19905;53.370;-6.314;2022-08-05T00:29:19;101848.81;;;11.63;100.00
29935;BME280;19905;53.370;-6.314;2022-08-05T00:31:51;101852.81;;;11.56;100.00
29935;BME280;19905;53.370;-6.314;2022-08-05T00:34:41;101851.19;;;11.53;100.00
29935;BME280;19905;53.370;-6.314;2022-08-05T00:37:30;101847.03;;;11.49;100.00
29935;BME280;19905;53.370;-6.314;2022-08-05T00:40:16;101849.22;;;11.42;100.00
29935;BME280;19905;53.370;-6.314;2022-08-05T00:42:56;101848.00;;;11.34;100.00
29935;BME280;19905;53.370;-6.314;2022-08-05T00:45:27;101845.63;;;11.29;100.00
29935;BME280;19905;53.370;-6.314;2022-08-05T00:48:06;101852.31;;;11.20;100.00
29935;BME280;19905;53.370;-6.314;2022-08-05T00:50:37;101851.84;;;11.14;100.00
29935;BME280;19905;53.370;-6.314;2022-08-05T00:53:09;101847.53;;;11.27;100.00
29935;BME280;19905;53.370;-6.314;2022-08-05T00:55:58;101849.97;;;11.16;100.00
29935;BME280;19905;53.370;-6.314;2022-08-05T00:58:27;101853.16;;;11.21;100.00
29935;BME280;19905;53.370;-6.314;2022-08-05T01:00:57;101854.09;;;11.06;100.00
29935;BME280;19905;53.370;-6.314;2022-08-05T01:03:26;101857.69;;;11.05;100.00
29935;BME280;19905;53.370;-6.314;2022-08-05T01:05:59;101852.75;;;10.99;100.00
29935;BME280;19905;53.370;-6.314;2022-08-05T01:08:31;101855.41;;;10.99;100.00
29935;BME280;19905;53.370;-6.314;2022-08-05T01:11:17;101859.84;;;10.98;100.00
29935;BME280;19905;53.370;-6.314;2022-08-05T01:13:56;101855.78;;;10.92;100.00
29935;BME280;19905;53.370;-6.314;2022-08-05T01:16:38;101859.16;;;10.94;100.00
29935;BME280;19905;53.370;-6.314;2022-08-05T01:19:18;101860.66;;;10.84;100.00
29935;BME280;19905;53.370;-6.314;2022-08-05T01:22:29;101855.31;;;10.86;100.00
29935;BME280;19905;53.370;-6.314;2022-08-05T01:25:28;101860.00;;;10.81;100.00
29935;BME280;19905;53.370;-6.314;2022-08-05T01:28:26;101862.91;;;10.76;100.00
29935;BME280;19905;53.370;-6.314;2022-08-05T01:31:01;101871.97;;;10.72;100.00
29935;BME280;19905;53.370;-6.314;2022-08-05T01:33:37;101859.78;;;10.69;100.00
29935;BME280;19905;53.370;-6.314;2022-08-05T01:36:17;101865.06;;;10.69;100.00
29935;BME280;19905;53.370;-6.314;2022-08-05T01:38:54;101865.16;;;10.68;100.00
29935;BME280;19905;53.370;-6.314;2022-08-05T01:41:31;101865.81;;;10.72;100.00
29935;BME280;19905;53.370;-6.314;2022-08-05T01:44:02;101868.72;;;10.67;100.00
29935;BME280;19905;53.370;-6.314;2022-08-05T01:46:38;101876.06;;;10.62;100.00
29935;BME280;19905;53.370;-6.314;2022-08-05T01:49:17;101875.72;;;10.68;100.00
29935;BME280;19905;53.370;-6.314;2022-08-05T01:51:56;101870.19;;;10.57;100.00
29935;BME280;19905;53.370;-6.314;2022-08-05T01:54:32;101868.78;;;10.51;100.00
29935;BME280;19905;53.370;-6.314;2022-08-05T01:57:18;101867.66;;;10.55;100.00
29935;BME280;19905;53.370;-6.314;2022-08-05T02:00:10;101872.16;;;10.53;100.00
29935;BME280;19905;53.370;-6.314;2022-08-05T02:02:43;101870.41;;;10.54;100.00
29935;BME280;19905;53.370;-6.314;2022-08-05T02:05:28;101873.22;;;10.51;100.00
29935;BME280;19905;53.370;-6.314;2022-08-05T02:08:03;101871.78;;;10.45;100.00
29935;BME280;19905;53.370;-6.314;2022-08-05T02:10:35;101875.44;;;10.42;100.00
29935;BME280;19905;53.370;-6.314;2022-08-05T02:13:12;101877.38;;;10.39;100.00
29935;BME280;19905;53.370;-6.314;2022-08-05T02:15:49;101877.84;;;10.31;100.00
29935;BME280;19905;53.370;-6.314;2022-08-05T02:18:25;101875.00;;;10.34;100.00
29935;BME280;19905;53.370;-6.314;2022-08-05T02:21:08;101871.88;;;10.28;100.00
29935;BME280;19905;53.370;-6.314;2022-08-05T02:23:43;101876.59;;;10.21;100.00
29935;BME280;19905;53.370;-6.314;2022-08-05T02:26:19;101874.91;;;10.20;100.00
29935;BME280;19905;53.370;-6.314;2022-08-05T02:28:55;101885.81;;;10.14;100.00
29935;BME280;19905;53.370;-6.314;2022-08-05T02:31:34;101877.91;;;10.14;100.00
29935;BME280;19905;53.370;-6.314;2022-08-05T02:34:07;101879.34;;;10.19;100.00
29935;BME280;19905;53.370;-6.314;2022-08-05T02:36:41;101878.84;;;10.13;100.00
29935;BME280;19905;53.370;-6.314;2022-08-05T02:39:15;101879.25;;;10.05;100.00
29935;BME280;19905;53.370;-6.314;2022-08-05T02:41:48;101881.56;;;10.11;100.00
29935;BME280;19905;53.370;-6.314;2022-08-05T02:44:29;101882.06;;;10.02;100.00
29935;BME280;19905;53.370;-6.314;2022-08-05T02:47:03;101882.00;;;10.04;100.00
29935;BME280;19905;53.370;-6.314;2022-08-05T02:49:35;101880.28;;;10.03;100.00
29935;BME280;19905;53.370;-6.314;2022-08-05T02:52:15;101882.84;;;10.04;100.00
29935;BME280;19905;53.370;-6.314;2022-08-05T02:54:56;101882.16;;;10.01;100.00
29935;BME280;19905;53.370;-6.314;2022-08-05T02:57:31;101878.22;;;10.08;100.00
29935;BME280;19905;53.370;-6.314;2022-08-05T03:00:23;101878.56;;;10.02;100.00
29935;BME280;19905;53.370;-6.314;2022-08-05T03:02:56;101879.16;;;10.07;100.00
29935;BME280;19905;53.370;-6.314;2022-08-05T03:05:26;101880.13;;;10.06;100.00
29935;BME280;19905;53.370;-6.314;2022-08-05T03:08:16;101874.34;;;9.99;100.00
29935;BME280;19905;53.370;-6.314;2022-08-05T03:10:56;101878.31;;;10.06;100.00
29935;BME280;19905;53.370;-6.314;2022-08-05T03:13:44;101869.81;;;10.01;100.00
29935;BME280;19905;53.370;-6.314;2022-08-05T03:16:28;101873.56;;;9.97;100.00
29935;BME280;19905;53.370;-6.314;2022-08-05T03:19:00;101869.97;;;9.98;100.00
29935;BME280;19905;53.370;-6.314;2022-08-05T03:21:43;101878.59;;;9.86;100.00
29935;BME280;19905;53.370;-6.314;2022-08-05T03:24:16;101880.13;;;9.90;100.00
29935;BME280;19905;53.370;-6.314;2022-08-05T03:26:56;101881.47;;;9.81;100.00
29935;BME280;19905;53.370;-6.314;2022-08-05T03:29:25;101880.13;;;9.90;100.00
29935;BME280;19905;53.370;-6.314;2022-08-05T03:32:14;101874.22;;;9.85;100.00
29935;BME280;19905;53.370;-6.314;2022-08-05T03:34:46;101880.88;;;9.76;100.00
29935;BME280;19905;53.370;-6.314;2022-08-05T03:37:18;101881.63;;;9.78;100.00
29935;BME280;19905;53.370;-6.314;2022-08-05T03:39:54;101884.41;;;9.75;100.00
29935;BME280;19905;53.370;-6.314;2022-08-05T03:42:27;101881.28;;;9.84;100.00
29935;BME280;19905;53.370;-6.314;2022-08-05T03:44:58;101885.81;;;9.82;100.00
29935;BME280;19905;53.370;-6.314;2022-08-05T03:47:47;101886.16;;;9.76;100.00
29935;BME280;19905;53.370;-6.314;2022-08-05T03:50:18;101888.09;;;9.73;100.00
29935;BME280;19905;53.370;-6.314;2022-08-05T03:52:53;101879.34;;;9.72;100.00
29935;BME280;19905;53.370;-6.314;2022-08-05T03:55:51;101874.06;;;9.72;100.00
29935;BME280;19905;53.370;-6.314;2022-08-05T03:58:44;101874.91;;;9.73;100.00
29935;BME280;19905;53.370;-6.314;2022-08-05T04:01:18;101885.81;;;9.82;100.00
29935;BME280;19905;53.370;-6.314;2022-08-05T04:03:48;101885.13;;;9.79;100.00
29935;BME280;19905;53.370;-6.314;2022-08-05T04:06:38;101884.00;;;9.83;100.00
29935;BME280;19905;53.370;-6.314;2022-08-05T04:09:14;101883.00;;;9.85;100.00
29935;BME280;19905;53.370;-6.314;2022-08-05T04:11:52;101881.13;;;9.87;100.00
29935;BME280;19905;53.370;-6.314;2022-08-05T04:14:24;101881.56;;;9.96;100.00
29935;BME280;19905;53.370;-6.314;2022-08-05T04:16:57;101884.91;;;9.99;100.00
29935;BME280;19905;53.370;-6.314;2022-08-05T04:19:28;101873.72;;;9.94;100.00
29935;BME280;19905;53.370;-6.314;2022-08-05T04:21:59;101889.53;;;9.94;100.00
29935;BME280;19905;53.370;-6.314;2022-08-05T04:24:38;101885.06;;;9.96;100.00
29935;BME280;19905;53.370;-6.314;2022-08-05T04:27:11;101873.66;;;9.96;100.00
29935;BME280;19905;53.370;-6.314;2022-08-05T04:29:41;101881.03;;;9.89;100.00
29935;BME280;19905;53.370;-6.314;2022-08-05T04:32:11;101886.84;;;9.96;100.00
29935;BME280;19905;53.370;-6.314;2022-08-05T04:34:46;101885.31;;;9.91;100.00
29935;BME280;19905;53.370;-6.314;2022-08-05T04:37:16;101889.28;;;9.99;100.00
29935;BME280;19905;53.370;-6.314;2022-08-05T04:39:44;101885.31;;;9.91;100.00
29935;BME280;19905;53.370;-6.314;2022-08-05T04:42:21;101895.00;;;9.91;100.00
29935;BME280;19905;53.370;-6.314;2022-08-05T04:44:51;101896.88;;;9.89;100.00
29935;BME280;19905;53.370;-6.314;2022-08-05T04:47:20;101906.50;;;9.90;100.00
29935;BME280;19905;53.370;-6.314;2022-08-05T04:49:49;101899.44;;;9.90;100.00
29935;BME280;19905;53.370;-6.314;2022-08-05T04:52:38;101911.69;;;9.91;100.00
29935;BME280;19905;53.370;-6.314;2022-08-05T04:55:07;101904.38;;;9.97;100.00
29935;BME280;19905;53.370;-6.314;2022-08-05T04:57:43;101898.84;;;10.01;100.00
29935;BME280;19905;53.370;-6.314;2022-08-05T05:00:14;101899.78;;;10.00;100.00
29935;BME280;19905;53.370;-6.314;2022-08-05T05:02:43;101907.25;;;10.08;100.00
29935;BME280;19905;53.370;-6.314;2022-08-05T05:05:13;101900.88;;;10.12;100.00
29935;BME280;19905;53.370;-6.314;2022-08-05T05:07:55;101905.41;;;10.10;100.00
29935;BME280;19905;53.370;-6.314;2022-08-05T05:10:29;101904.56;;;10.09;100.00
29935;BME280;19905;53.370;-6.314;2022-08-05T05:12:59;101922.00;;;10.12;100.00
29935;BME280;19905;53.370;-6.314;2022-08-05T05:15:30;101915.19;;;10.08;100.00
29935;BME280;19905;53.370;-6.314;2022-08-05T05:18:20;101916.13;;;10.07;100.00
29935;BME280;19905;53.370;-6.314;2022-08-05T05:21:00;101929.41;;;10.05;100.00
29935;BME280;19905;53.370;-6.314;2022-08-05T05:23:34;101921.34;;;10.08;100.00
29935;BME280;19905;53.370;-6.314;2022-08-05T05:26:22;101930.28;;;10.06;100.00
29935;BME280;19905;53.370;-6.314;2022-08-05T05:28:58;101923.28;;;10.05;100.00
29935;BME280;19905;53.370;-6.314;2022-08-05T05:31:28;101932.16;;;10.04;100.00
29935;BME280;19905;53.370;-6.314;2022-08-05T05:33:57;101928.72;;;10.02;100.00
29935;BME280;19905;53.370;-6.314;2022-08-05T05:36:29;101934.09;;;10.00;100.00
29935;BME280;19905;53.370;-6.314;2022-08-05T05:39:02;101931.28;;;10.03;100.00
29935;BME280;19905;53.370;-6.314;2022-08-05T05:41:36;101935.91;;;10.00;100.00
29935;BME280;19905;53.370;-6.314;2022-08-05T05:44:08;101942.47;;;10.08;100.00
29935;BME280;19905;53.370;-6.314;2022-08-05T05:46:57;101938.78;;;10.11;100.00
29935;BME280;19905;53.370;-6.314;2022-08-05T05:49:30;101940.81;;;10.22;100.00
29935;BME280;19905;53.370;-6.314;2022-08-05T05:51:59;101941.72;;;10.22;100.00
29935;BME280;19905;53.370;-6.314;2022-08-05T05:54:34;101936.78;;;10.32;100.00
29935;BME280;19905;53.370;-6.314;2022-08-05T05:57:17;101931.69;;;10.29;100.00
29935;BME280;19905;53.370;-6.314;2022-08-05T05:59:46;101944.28;;;10.39;100.00
29935;BME280;19905;53.370;-6.314;2022-08-05T06:02:18;101950.59;;;10.37;100.00
29935;BME280;19905;53.370;-6.314;2022-08-05T06:05:07;101952.97;;;10.41;100.00
29935;BME280;19905;53.370;-6.314;2022-08-05T06:07:43;101964.28;;;10.43;100.00
29935;BME280;19905;53.370;-6.314;2022-08-05T06:10:29;101957.91;;;10.48;100.00
29935;BME280;19905;53.370;-6.314;2022-08-05T06:13:03;101964.22;;;10.45;100.00
29935;BME280;19905;53.370;-6.314;2022-08-05T06:15:32;101968.31;;;10.51;100.00
29935;BME280;19905;53.370;-6.314;2022-08-05T06:18:22;101970.78;;;10.54;100.00
29935;BME280;19905;53.370;-6.314;2022-08-05T06:21:00;101971.72;;;10.53;100.00
29935;BME280;19905;53.370;-6.314;2022-08-05T06:23:36;101975.88;;;10.57;100.00
29935;BME280;19905;53.370;-6.314;2022-08-05T06:26:37;101978.19;;;10.63;100.00
29935;BME280;19905;53.370;-6.314;2022-08-05T06:29:19;101972.03;;;10.62;100.00
29935;BME280;19905;53.370;-6.314;2022-08-05T06:32:09;101977.16;;;10.65;100.00
29935;BME280;19905;53.370;-6.314;2022-08-05T06:34:52;101974.09;;;10.73;100.00
29935;BME280;19905;53.370;-6.314;2022-08-05T06:37:23;101978.97;;;10.65;100.00
29935;BME280;19905;53.370;-6.314;2022-08-05T06:40:14;101972.31;;;10.74;100.00
29935;BME280;19905;53.370;-6.314;2022-08-05T06:42:49;101987.25;;;10.59;100.00
29935;BME280;19905;53.370;-6.314;2022-08-05T06:45:19;101987.91;;;10.62;100.00
29935;BME280;19905;53.370;-6.314;2022-08-05T06:48:08;101996.69;;;10.63;100.00
29935;BME280;19905;53.370;-6.314;2022-08-05T06:50:57;101994.97;;;10.62;100.00
29935;BME280;19905;53.370;-6.314;2022-08-05T06:53:27;102000.34;;;10.60;100.00
29935;BME280;19905;53.370;-6.314;2022-08-05T06:56:05;102008.38;;;10.59;100.00
29935;BME280;19905;53.370;-6.314;2022-08-05T06:58:55;102019.34;;;10.67;100.00
29935;BME280;19905;53.370;-6.314;2022-08-05T07:01:40;102008.69;;;10.84;100.00
29935;BME280;19905;53.370;-6.314;2022-08-05T07:04:12;102011.59;;;10.96;100.00
29935;BME280;19905;53.370;-6.314;2022-08-05T07:06:46;102005.25;;;11.14;100.00
29935;BME280;19905;53.370;-6.314;2022-08-05T07:09:31;102013.97;;;11.30;100.00
29935;BME280;19905;53.370;-6.314;2022-08-05T07:12:11;102013.66;;;11.51;100.00
29935;BME280;19905;53.370;-6.314;2022-08-05T07:15:05;102013.41;;;11.69;100.00
29935;BME280;19905;53.370;-6.314;2022-08-05T07:18:24;102008.69;;;11.75;100.00
29935;BME280;19905;53.370;-6.314;2022-08-05T07:21:08;102013.59;;;11.81;100.00
29935;BME280;19905;53.370;-6.314;2022-08-05T07:23:38;102015.03;;;11.86;100.00
29935;BME280;19905;53.370;-6.314;2022-08-05T07:26:20;102015.06;;;12.01;100.00
29935;BME280;19905;53.370;-6.314;2022-08-05T07:28:56;102014.78;;;12.05;100.00
29935;BME280;19905;53.370;-6.314;2022-08-05T07:31:27;102011.84;;;12.10;100.00
29935;BME280;19905;53.370;-6.314;2022-08-05T07:34:16;102010.97;;;12.09;100.00
29935;BME280;19905;53.370;-6.314;2022-08-05T07:37:04;102004.25;;;12.18;100.00
29935;BME280;19905;53.370;-6.314;2022-08-05T07:39:37;102003.91;;;12.24;100.00
29935;BME280;19905;53.370;-6.314;2022-08-05T07:42:25;102009.81;;;12.28;100.00
29935;BME280;19905;53.370;-6.314;2022-08-05T07:45:07;102013.69;;;12.36;100.00
29935;BME280;19905;53.370;-6.314;2022-08-05T07:47:39;102006.13;;;12.44;100.00
29935;BME280;19905;53.370;-6.314;2022-08-05T07:50:09;102016.91;;;12.41;100.00
29935;BME280;19905;53.370;-6.314;2022-08-05T07:52:43;102017.94;;;12.53;100.00
29935;BME280;19905;53.370;-6.314;2022-08-05T07:55:13;102023.44;;;12.50;100.00
29935;BME280;19905;53.370;-6.314;2022-08-05T07:58:03;102020.97;;;12.61;100.00
29935;BME280;19905;53.370;-6.314;2022-08-05T08:00:32;102008.41;;;12.78;100.00
29935;BME280;19905;53.370;-6.314;2022-08-05T08:03:03;102024.84;;;12.83;100.00
29935;BME280;19905;53.370;-6.314;2022-08-05T08:05:42;102010.97;;;12.79;100.00
29935;BME280;19905;53.370;-6.314;2022-08-05T08:08:16;102031.03;;;12.83;100.00
29935;BME280;19905;53.370;-6.314;2022-08-05T08:10:46;102030.56;;;12.77;100.00
29935;BME280;19905;53.370;-6.314;2022-08-05T08:13:16;102032.94;;;12.81;100.00
29935;BME280;19905;53.370;-6.314;2022-08-05T08:15:54;102030.16;;;12.83;100.00
29935;BME280;19905;53.370;-6.314;2022-08-05T08:18:45;102033.88;;;12.80;100.00
29935;BME280;19905;53.370;-6.314;2022-08-05T08:21:16;102027.50;;;12.83;100.00
29935;BME280;19905;53.370;-6.314;2022-08-05T08:23:44;102026.72;;;12.95;100.00
29935;BME280;19905;53.370;-6.314;2022-08-05T08:26:30;102030.16;;;13.10;100.00
29935;BME280;19905;53.370;-6.314;2022-08-05T08:28:59;102026.44;;;13.27;100.00
29935;BME280;19905;53.370;-6.314;2022-08-05T08:31:51;102027.22;;;13.41;100.00
29935;BME280;19905;53.370;-6.314;2022-08-05T08:34:25;102024.03;;;13.49;100.00
29935;BME280;19905;53.370;-6.314;2022-08-05T08:36:59;102030.22;;;13.62;100.00
29935;BME280;19905;53.370;-6.314;2022-08-05T08:39:33;102027.47;;;13.64;100.00
29935;BME280;19905;53.370;-6.314;2022-08-05T08:42:08;102028.41;;;13.63;100.00
29935;BME280;19905;53.370;-6.314;2022-08-05T08:45:03;102032.03;;;13.87;100.00
29935;BME280;19905;53.370;-6.314;2022-08-05T08:47:53;102029.28;;;13.89;100.00
29935;BME280;19905;53.370;-6.314;2022-08-05T08:50:43;102048.19;;;13.97;100.00
29935;BME280;19905;53.370;-6.314;2022-08-05T08:53:35;102049.06;;;13.97;100.00
29935;BME280;19905;53.370;-6.314;2022-08-05T08:56:11;102041.38;;;14.06;100.00
29935;BME280;19905;53.370;-6.314;2022-08-05T08:58:40;102043.91;;;14.20;100.00
29935;BME280;19905;53.370;-6.314;2022-08-05T09:01:16;102038.91;;;14.28;100.00
29935;BME280;19905;53.370;-6.314;2022-08-05T09:03:49;102038.81;;;14.30;100.00
29935;BME280;19905;53.370;-6.314;2022-08-05T09:06:26;102035.72;;;14.36;100.00
29935;BME280;19905;53.370;-6.314;2022-08-05T09:08:58;102030.09;;;14.53;100.00
29935;BME280;19905;53.370;-6.314;2022-08-05T09:11:28;102031.13;;;14.63;100.00
29935;BME280;19905;53.370;-6.314;2022-08-05T09:14:17;102032.59;;;14.67;100.00
29935;BME280;19905;53.370;-6.314;2022-08-05T09:17:10;102016.63;;;15.15;100.00
29935;BME280;19905;53.370;-6.314;2022-08-05T09:20:03;102029.66;;;15.42;100.00
29935;BME280;19905;53.370;-6.314;2022-08-05T09:23:05;102023.63;;;15.16;100.00
29935;BME280;19905;53.370;-6.314;2022-08-05T09:25:47;102023.63;;;15.40;100.00
29935;BME280;19905;53.370;-6.314;2022-08-05T09:28:32;102009.97;;;15.56;100.00
29935;BME280;19905;53.370;-6.314;2022-08-05T09:31:03;102019.56;;;15.59;100.00
29935;BME280;19905;53.370;-6.314;2022-08-05T09:33:55;102014.19;;;15.47;100.00
29935;BME280;19905;53.370;-6.314;2022-08-05T09:36:38;102025.94;;;15.56;100.00
29935;BME280;19905;53.370;-6.314;2022-08-05T09:39:24;102027.00;;;15.89;100.00
29935;BME280;19905;53.370;-6.314;2022-08-05T09:42:15;102018.78;;;15.81;100.00
29935;BME280;19905;53.370;-6.314;2022-08-05T09:44:54;102019.28;;;16.08;100.00
29935;BME280;19905;53.370;-6.314;2022-08-05T09:47:43;102013.72;;;16.22;100.00
29935;BME280;19905;53.370;-6.314;2022-08-05T09:50:33;102013.56;;;16.24;100.00
29935;BME280;19905;53.370;-6.314;2022-08-05T09:53:11;102018.44;;;15.96;100.00
29935;BME280;19905;53.370;-6.314;2022-08-05T09:55:58;102021.78;;;15.65;100.00
29935;BME280;19905;53.370;-6.314;2022-08-05T09:58:37;102030.16;;;15.71;100.00
29935;BME280;19905;53.370;-6.314;2022-08-05T10:01:11;102023.38;;;15.67;100.00
29935;BME280;19905;53.370;-6.314;2022-08-05T10:04:00;102025.91;;;15.69;100.00
29935;BME280;19905;53.370;-6.314;2022-08-05T10:06:38;102027.19;;;15.63;100.00
29935;BME280;19905;53.370;-6.314;2022-08-05T10:09:24;102036.47;;;15.58;100.00
29935;BME280;19905;53.370;-6.314;2022-08-05T10:12:08;102027.91;;;15.54;100.00
29935;BME280;19905;53.370;-6.314;2022-08-05T10:15:21;102033.56;;;15.49;100.00
29935;BME280;19905;53.370;-6.314;2022-08-05T10:18:10;102041.06;;;15.44;100.00
29935;BME280;19905;53.370;-6.314;2022-08-05T10:20:43;102042.59;;;15.36;100.00
29935;BME280;19905;53.370;-6.314;2022-08-05T10:23:17;102046.41;;;15.44;100.00
29935;BME280;19905;53.370;-6.314;2022-08-05T10:26:09;102050.28;;;15.51;100.00
29935;BME280;19905;53.370;-6.314;2022-08-05T10:28:43;102054.47;;;15.43;100.00
29935;BME280;19905;53.370;-6.314;2022-08-05T10:31:14;102057.13;;;15.43;100.00
29935;BME280;19905;53.370;-6.314;2022-08-05T10:34:04;102081.00;;;15.20;100.00
29935;BME280;19905;53.370;-6.314;2022-08-05T10:36:43;102083.81;;;14.82;100.00
29935;BME280;19905;53.370;-6.314;2022-08-05T10:39:16;102087.41;;;14.57;100.00
29935;BME280;19905;53.370;-6.314;2022-08-05T10:42:11;102109.72;;;14.29;100.00
29935;BME280;19905;53.370;-6.314;2022-08-05T10:44:46;102117.78;;;14.15;100.00
29935;BME280;19905;53.370;-6.314;2022-08-05T10:47:15;102124.84;;;14.16;100.00
29935;BME280;19905;53.370;-6.314;2022-08-05T10:50:02;102142.34;;;14.18;100.00
29935;BME280;19905;53.370;-6.314;2022-08-05T10:52:53;102146.59;;;14.08;100.00
29935;BME280;19905;53.370;-6.314;2022-08-05T10:55:27;102155.00;;;14.15;100.00
29935;BME280;19905;53.370;-6.314;2022-08-05T10:58:16;102159.47;;;14.27;100.00
29935;BME280;19905;53.370;-6.314;2022-08-05T11:00:48;102163.28;;;14.10;100.00
29935;BME280;19905;53.370;-6.314;2022-08-05T11:03:29;102161.59;;;14.09;100.00
29935;BME280;19905;53.370;-6.314;2022-08-05T11:06:08;102158.75;;;14.25;100.00
29935;BME280;19905;53.370;-6.314;2022-08-05T11:09:12;102155.88;;;14.41;100.00
29935;BME280;19905;53.370;-6.314;2022-08-05T11:11:43;102154.94;;;14.55;100.00
29935;BME280;19905;53.370;-6.314;2022-08-05T11:14:24;102152.16;;;14.56;100.00
29935;BME280;19905;53.370;-6.314;2022-08-05T11:17:31;102143.53;;;15.15;100.00
29935;BME280;19905;53.370;-6.314;2022-08-05T11:20:41;102125.03;;;15.96;100.00
29935;BME280;19905;53.370;-6.314;2022-08-05T11:23:31;102121.56;;;16.18;100.00
29935;BME280;19905;53.370;-6.314;2022-08-05T11:26:21;102112.84;;;16.27;100.00
29935;BME280;19905;53.370;-6.314;2022-08-05T11:28:59;102120.34;;;16.67;100.00
29935;BME280;19905;53.370;-6.314;2022-08-05T11:31:41;102114.78;;;16.93;100.00
29935;BME280;19905;53.370;-6.314;2022-08-05T11:34:39;102104.47;;;16.88;100.00
29935;BME280;19905;53.370;-6.314;2022-08-05T11:37:43;102108.47;;;16.71;100.00
29935;BME280;19905;53.370;-6.314;2022-08-05T11:40:57;102108.19;;;17.08;100.00
29935;BME280;19905;53.370;-6.314;2022-08-05T11:43:54;102095.91;;;17.17;100.00
29935;BME280;19905;53.370;-6.314;2022-08-05T11:46:34;102104.25;;;17.56;100.00
29935;BME280;19905;53.370;-6.314;2022-08-05T11:49:23;102090.03;;;17.87;100.00
29935;BME280;19905;53.370;-6.314;2022-08-05T11:51:53;102086.75;;;18.04;100.00
29935;BME280;19905;53.370;-6.314;2022-08-05T11:54:25;102091.53;;;18.32;100.00
29935;BME280;19905;53.370;-6.314;2022-08-05T11:57:01;102081.22;;;18.58;100.00
29935;BME280;19905;53.370;-6.314;2022-08-05T11:59:50;102100.00;;;17.85;100.00
29935;BME280;19905;53.370;-6.314;2022-08-05T12:02:25;102095.28;;;18.19;100.00
29935;BME280;19905;53.370;-6.314;2022-08-05T12:04:59;102097.28;;;18.27;100.00
29935;BME280;19905;53.370;-6.314;2022-08-05T12:07:45;102095.34;;;18.08;100.00
29935;BME280;19905;53.370;-6.314;2022-08-05T12:10:35;102093.16;;;17.92;100.00
29935;BME280;19905;53.370;-6.314;2022-08-05T12:13:16;102084.91;;;18.66;100.00
29935;BME280;19905;53.370;-6.314;2022-08-05T12:16:06;102085.25;;;18.83;100.00
29935;BME280;19905;53.370;-6.314;2022-08-05T12:18:41;102094.47;;;19.19;100.00
29935;BME280;19905;53.370;-6.314;2022-08-05T12:21:23;102087.31;;;19.39;100.00
29935;BME280;19905;53.370;-6.314;2022-08-05T12:24:02;102083.75;;;19.09;100.00
29935;BME280;19905;53.370;-6.314;2022-08-05T12:26:34;102090.19;;;18.87;100.00
29935;BME280;19905;53.370;-6.314;2022-08-05T12:29:03;102101.31;;;18.42;100.00
29935;BME280;19905;53.370;-6.314;2022-08-05T12:31:46;102091.38;;;18.02;100.00
29935;BME280;19905;53.370;-6.314;2022-08-05T12:34:22;102096.78;;;17.91;100.00
29935;BME280;19905;53.370;-6.314;2022-08-05T12:36:57;102101.00;;;17.52;100.00
29935;BME280;19905;53.370;-6.314;2022-08-05T12:39:31;102104.56;;;17.41;100.00
29935;BME280;19905;53.370;-6.314;2022-08-05T12:42:09;102116.09;;;17.42;100.00
29935;BME280;19905;53.370;-6.314;2022-08-05T12:44:41;102114.28;;;17.42;100.00
29935;BME280;19905;53.370;-6.314;2022-08-05T12:47:10;102115.72;;;17.46;100.00
29935;BME280;19905;53.370;-6.314;2022-08-05T12:49:45;102112.06;;;17.68;100.00
29935;BME280;19905;53.370;-6.314;2022-08-05T12:52:35;102123.75;;;17.78;100.00
29935;BME280;19905;53.370;-6.314;2022-08-05T12:55:20;102119.66;;;18.05;100.00
29935;BME280;19905;53.370;-6.314;2022-08-05T12:57:54;102126.19;;;18.33;100.00
29935;BME280;19905;53.370;-6.314;2022-08-05T13:00:44;102137.44;;;18.88;100.00
29935;BME280;19905;53.370;-6.314;2022-08-05T13:03:35;102131.75;;;18.82;100.00
29935;BME280;19905;53.370;-6.314;2022-08-05T13:06:13;102129.91;;;18.82;100.00
29935;BME280;19905;53.370;-6.314;2022-08-05T13:08:44;102138.44;;;18.97;100.00
29935;BME280;19905;53.370;-6.314;2022-08-05T13:11:20;102135.50;;;19.10;100.00
29935;BME280;19905;53.370;-6.314;2022-08-05T13:14:17;102135.00;;;18.75;100.00
29935;BME280;19905;53.370;-6.314;2022-08-05T13:17:06;102135.06;;;18.34;100.00
29935;BME280;19905;53.370;-6.314;2022-08-05T13:19:36;102134.66;;;18.69;100.00
29935;BME280;19905;53.370;-6.314;2022-08-05T13:22:22;102138.38;;;18.77;100.00
29935;BME280;19905;53.370;-6.314;2022-08-05T13:24:57;102131.56;;;19.33;100.00
29935;BME280;19905;53.370;-6.314;2022-08-05T13:27:34;102120.16;;;19.50;98.30
29935;BME280;19905;53.370;-6.314;2022-08-05T13:30:06;102137.97;;;18.92;96.53
29935;BME280;19905;53.370;-6.314;2022-08-05T13:32:56;102131.81;;;18.61;94.07